sensor_id;sensor_type;location;lat;lon;timestamp;pressure;altitude;pressure_sealevel;temperature;humidity
17635;BME280;8936;49.010;12.120;2023-03-22T00:01:57;97733.88;;;13.41;100.00
17635;BME280;8936;49.010;12.120;2023-03-22T00:04:23;97734.81;;;13.55;100.00
17635;BME280;8936;49.010;12.120;2023-03-22T00:06:50;97744.50;;;13.51;100.00
17635;BME280;8936;49.010;12.120;2023-03-22T00:09:16;97732.34;;;13.35;100.00
17635;BME280;8936;49.010;12.120;2023-03-22T00:11:43;97729.50;;;13.26;100.00
17635;BME280;8936;49.010;12.120;2023-03-22T00:14:10;97742.09;;;13.26;100.00
17635;BME280;8936;49.010;12.120;2023-03-22T00:16:36;97723.50;;;13.34;100.00
17635;BME280;8936;49.010;12.120;2023-03-22T00:19:04;97734.47;;;13.38;100.00
17635;BME280;8936;49.010;12.120;2023-03-22T00:21:30;97720.66;;;13.26;100.00
17635;BME280;8936;49.010;12.120;2023-03-22T00:23:57;97712.66;;;13.21;100.00
17635;BME280;8936;49.010;12.120;2023-03-22T00:26:23;97728.84;;;13.11;100.00
17635;BME280;8936;49.010;12.120;2023-03-22T00:28:49;97723.59;;;12.95;100.00
17635;BME280;8936;49.010;12.120;2023-03-22T00:31:16;97724.69;;;12.94;100.00
17635;BME280;8936;49.010;12.120;2023-03-22T00:33:44;97729.91;;;12.81;100.00
17635;BME280;8936;49.010;12.120;2023-03-22T00:36:13;97737.84;;;12.91;100.00
17635;BME280;8936;49.010;12.120;2023-03-22T00:38:39;97728.03;;;13.10;100.00
17635;BME280;8936;49.010;12.120;2023-03-22T00:41:06;97726.09;;;13.16;100.00
17635;BME280;8936;49.010;12.120;2023-03-22T00:43:33;97728.50;;;13.17;100.00
17635;BME280;8936;49.010;12.120;2023-03-22T00:46:00;97731.06;;;12.98;100.00
17635;BME280;8936;49.010;12.120;2023-03-22T00:48:26;97730.09;;;12.89;100.00
17635;BME280;8936;49.010;12.120;2023-03-22T00:50:53;97729.56;;;12.87;100.00
17635;BME280;8936;49.010;12.120;2023-03-22T00:53:20;97731.09;;;12.65;100.00
17635;BME280;8936;49.010;12.120;2023-03-22T00:55:47;97731.28;;;12.73;100.00
17635;BME280;8936;49.010;12.120;2023-03-22T00:58:13;97730.47;;;12.78;100.00
17635;BME280;8936;49.010;12.120;2023-03-22T01:00:41;97725.47;;;12.95;100.00
17635;BME280;8936;49.010;12.120;2023-03-22T01:03:09;97722.09;;;13.13;100.00
17635;BME280;8936;49.010;12.120;2023-03-22T01:05:38;97712.91;;;13.24;100.00
17635;BME280;8936;49.010;12.120;2023-03-22T01:08:04;97714.88;;;13.37;100.00
17635;BME280;8936;49.010;12.120;2023-03-22T01:10:33;97725.22;;;13.49;100.00
17635;BME280;8936;49.010;12.120;2023-03-22T01:13:00;97714.03;;;13.42;100.00
17635;BME280;8936;49.010;12.120;2023-03-22T01:15:27;97701.84;;;13.49;100.00
17635;BME280;8936;49.010;12.120;2023-03-22T01:17:53;97718.16;;;13.58;100.00
17635;BME280;8936;49.010;12.120;2023-03-22T01:20:21;97706.22;;;13.45;100.00
17635;BME280;8936;49.010;12.120;2023-03-22T01:22:48;97708.66;;;13.42;100.00
17635;BME280;8936;49.010;12.120;2023-03-22T01:25:14;97708.56;;;13.52;100.00
17635;BME280;8936;49.010;12.120;2023-03-22T01:27:42;97702.72;;;13.45;100.00
17635;BME280;8936;49.010;12.120;2023-03-22T01:30:09;97707.22;;;13.26;100.00
17635;BME280;8936;49.010;12.120;2023-03-22T01:32:35;97704.84;;;12.95;100.00
17635;BME280;8936;49.010;12.120;2023-03-22T01:35:02;97684.44;;;12.99;100.00
17635;BME280;8936;49.010;12.120;2023-03-22T01:37:28;97685.00;;;12.96;100.00
17635;BME280;8936;49.010;12.120;2023-03-22T01:39:56;97679.91;;;12.95;100.00
17635;BME280;8936;49.010;12.120;2023-03-22T01:42:24;97677.22;;;12.95;100.00
17635;BME280;8936;49.010;12.120;2023-03-22T01:47:37;97676.34;;;13.05;100.00
17635;BME280;8936;49.010;12.120;2023-03-22T01:50:04;97688.75;;;12.95;100.00
17635;BME280;8936;49.010;12.120;2023-03-22T01:52:31;97690.25;;;13.07;100.00
17635;BME280;8936;49.010;12.120;2023-03-22T01:54:57;97685.84;;;13.21;100.00
17635;BME280;8936;49.010;12.120;2023-03-22T01:57:24;97690.88;;;13.27;100.00
17635;BME280;8936;49.010;12.120;2023-03-22T01:59:50;97686.59;;;13.26;100.00
17635;BME280;8936;49.010;12.120;2023-03-22T02:02:17;97683.41;;;13.24;100.00
17635;BME280;8936;49.010;12.120;2023-03-22T02:04:44;97697.00;;;13.28;100.00
17635;BME280;8936;49.010;12.120;2023-03-22T02:07:14;97688.13;;;13.32;100.00
17635;BME280;8936;49.010;12.120;2023-03-22T02:09:50;97679.28;;;13.32;100.00
17635;BME280;8936;49.010;12.120;2023-03-22T02:12:19;97676.31;;;13.33;100.00
17635;BME280;8936;49.010;12.120;2023-03-22T02:14:56;97678.19;;;13.33;100.00
17635;BME280;8936;49.010;12.120;2023-03-22T02:17:26;97673.06;;;13.36;100.00
17635;BME280;8936;49.010;12.120;2023-03-22T02:22:59;97674.97;;;12.78;100.00
17635;BME280;8936;49.010;12.120;2023-03-22T02:28:17;97658.81;;;12.26;100.00
17635;BME280;8936;49.010;12.120;2023-03-22T02:30:59;97665.81;;;12.22;100.00
17635;BME280;8936;49.010;12.120;2023-03-22T02:33:30;97662.28;;;12.26;100.00
17635;BME280;8936;49.010;12.120;2023-03-22T02:36:12;97659.09;;;12.24;100.00
17635;BME280;8936;49.010;12.120;2023-03-22T02:41:36;97651.22;;;12.72;100.00
17635;BME280;8936;49.010;12.120;2023-03-22T02:44:07;97640.84;;;12.89;100.00
17635;BME280;8936;49.010;12.120;2023-03-22T02:46:36;97646.34;;;13.03;100.00
17635;BME280;8936;49.010;12.120;2023-03-22T02:49:10;97650.03;;;13.12;100.00
17635;BME280;8936;49.010;12.120;2023-03-22T02:51:40;97648.88;;;13.18;100.00
17635;BME280;8936;49.010;12.120;2023-03-22T02:54:08;97649.44;;;13.15;100.00
17635;BME280;8936;49.010;12.120;2023-03-22T02:56:40;97651.13;;;13.06;100.00
17635;BME280;8936;49.010;12.120;2023-03-22T02:59:08;97647.47;;;12.96;100.00
17635;BME280;8936;49.010;12.120;2023-03-22T03:01:37;97656.50;;;13.06;100.00
17635;BME280;8936;49.010;12.120;2023-03-22T03:04:06;97655.16;;;13.08;100.00
17635;BME280;8936;49.010;12.120;2023-03-22T03:06:36;97656.97;;;13.13;100.00
17635;BME280;8936;49.010;12.120;2023-03-22T03:09:04;97655.03;;;13.18;100.00
17635;BME280;8936;49.010;12.120;2023-03-22T03:11:31;97657.44;;;13.20;100.00
17635;BME280;8936;49.010;12.120;2023-03-22T03:13:59;97656.84;;;13.23;100.00
17635;BME280;8936;49.010;12.120;2023-03-22T03:16:26;97653.09;;;13.24;100.00
17635;BME280;8936;49.010;12.120;2023-03-22T03:18:55;97651.97;;;13.01;100.00
17635;BME280;8936;49.010;12.120;2023-03-22T03:21:25;97654.19;;;12.94;100.00
17635;BME280;8936;49.010;12.120;2023-03-22T03:23:59;97638.97;;;12.89;100.00
17635;BME280;8936;49.010;12.120;2023-03-22T03:26:28;97646.13;;;12.94;100.00
17635;BME280;8936;49.010;12.120;2023-03-22T03:28:59;97647.41;;;13.02;100.00
17635;BME280;8936;49.010;12.120;2023-03-22T03:31:30;97656.03;;;12.98;100.00
17635;BME280;8936;49.010;12.120;2023-03-22T03:34:00;97657.16;;;12.92;100.00
17635;BME280;8936;49.010;12.120;2023-03-22T03:36:27;97669.00;;;12.86;100.00
17635;BME280;8936;49.010;12.120;2023-03-22T03:38:55;97660.13;;;12.62;100.00
17635;BME280;8936;49.010;12.120;2023-03-22T03:41:23;97656.25;;;12.44;100.00
17635;BME280;8936;49.010;12.120;2023-03-22T03:43:52;97658.75;;;12.36;100.00
17635;BME280;8936;49.010;12.120;2023-03-22T03:46:21;97655.00;;;12.37;100.00
17635;BME280;8936;49.010;12.120;2023-03-22T03:48:48;97666.09;;;12.54;100.00
17635;BME280;8936;49.010;12.120;2023-03-22T03:51:15;97668.13;;;12.67;100.00
17635;BME280;8936;49.010;12.120;2023-03-22T03:53:42;97669.09;;;12.76;100.00
17635;BME280;8936;49.010;12.120;2023-03-22T03:56:08;97671.53;;;12.78;100.00
17635;BME280;8936;49.010;12.120;2023-03-22T03:58:35;97667.84;;;12.69;100.00
17635;BME280;8936;49.010;12.120;2023-03-22T04:01:01;97673.22;;;12.69;100.00
17635;BME280;8936;49.010;12.120;2023-03-22T04:03:30;97667.03;;;12.68;100.00
17635;BME280;8936;49.010;12.120;2023-03-22T04:05:56;97670.06;;;12.62;100.00
17635;BME280;8936;49.010;12.120;2023-03-22T04:08:24;97671.25;;;12.45;100.00
17635;BME280;8936;49.010;12.120;2023-03-22T04:10:50;97666.66;;;12.51;100.00
17635;BME280;8936;49.010;12.120;2023-03-22T04:13:16;97660.03;;;12.43;100.00
17635;BME280;8936;49.010;12.120;2023-03-22T04:15:45;97662.97;;;12.42;100.00
17635;BME280;8936;49.010;12.120;2023-03-22T04:18:11;97666.63;;;12.56;100.00
17635;BME280;8936;49.010;12.120;2023-03-22T04:20:39;97667.03;;;12.68;100.00
17635;BME280;8936;49.010;12.120;2023-03-22T04:23:07;97664.31;;;12.73;100.00
17635;BME280;8936;49.010;12.120;2023-03-22T04:25:35;97666.94;;;12.78;100.00
17635;BME280;8936;49.010;12.120;2023-03-22T04:28:02;97660.50;;;12.79;100.00
17635;BME280;8936;49.010;12.120;2023-03-22T04:30:28;97662.63;;;12.82;100.00
17635;BME280;8936;49.010;12.120;2023-03-22T04:32:54;97662.38;;;12.79;100.00
17635;BME280;8936;49.010;12.120;2023-03-22T04:35:21;97658.63;;;12.80;100.00
17635;BME280;8936;49.010;12.120;2023-03-22T04:37:49;97655.13;;;12.79;100.00
17635;BME280;8936;49.010;12.120;2023-03-22T04:40:15;97653.28;;;12.80;100.00
17635;BME280;8936;49.010;12.120;2023-03-22T04:42:45;97659.94;;;12.82;100.00
17635;BME280;8936;49.010;12.120;2023-03-22T04:45:12;97652.47;;;12.79;100.00
17635;BME280;8936;49.010;12.120;2023-03-22T04:47:38;97646.03;;;12.80;100.00
17635;BME280;8936;49.010;12.120;2023-03-22T04:50:05;97653.53;;;12.78;100.00
17635;BME280;8936;49.010;12.120;2023-03-22T04:52:32;97646.28;;;12.79;100.00
17635;BME280;8936;49.010;12.120;2023-03-22T04:54:59;97654.91;;;12.76;100.00
17635;BME280;8936;49.010;12.120;2023-03-22T04:57:26;97646.59;;;12.77;100.00
17635;BME280;8936;49.010;12.120;2023-03-22T04:59:52;97653.03;;;12.76;100.00
17635;BME280;8936;49.010;12.120;2023-03-22T05:02:19;97662.13;;;12.75;100.00
17635;BME280;8936;49.010;12.120;2023-03-22T05:04:45;97662.13;;;12.75;100.00
17635;BME280;8936;49.010;12.120;2023-03-22T05:07:11;97659.75;;;12.74;100.00
17635;BME280;8936;49.010;12.120;2023-03-22T05:09:38;97658.44;;;12.71;100.00
17635;BME280;8936;49.010;12.120;2023-03-22T05:12:06;97659.25;;;12.72;100.00
17635;BME280;8936;49.010;12.120;2023-03-22T05:14:32;97656.84;;;12.70;100.00
17635;BME280;8936;49.010;12.120;2023-03-22T05:16:58;97652.56;;;12.69;100.00
17635;BME280;8936;49.010;12.120;2023-03-22T05:19:25;97655.00;;;12.66;100.00
17635;BME280;8936;49.010;12.120;2023-03-22T05:21:51;97641.34;;;12.67;100.00
17635;BME280;8936;49.010;12.120;2023-03-22T05:24:22;97660.88;;;12.68;100.00
17635;BME280;8936;49.010;12.120;2023-03-22T05:26:48;97661.69;;;12.68;100.00
17635;BME280;8936;49.010;12.120;2023-03-22T05:29:19;97662.66;;;12.49;100.00
17635;BME280;8936;49.010;12.120;2023-03-22T05:31:46;97668.56;;;12.45;100.00
17635;BME280;8936;49.010;12.120;2023-03-22T05:34:12;97663.47;;;12.49;100.00
17635;BME280;8936;49.010;12.120;2023-03-22T05:36:39;97664.50;;;12.53;100.00
17635;BME280;8936;49.010;12.120;2023-03-22T05:39:05;97673.56;;;12.57;100.00
17635;BME280;8936;49.010;12.120;2023-03-22T05:41:32;97674.66;;;12.56;100.00
17635;BME280;8936;49.010;12.120;2023-03-22T05:43:58;97662.34;;;12.55;100.00
17635;BME280;8936;49.010;12.120;2023-03-22T05:46:26;97665.81;;;12.56;100.00
17635;BME280;8936;49.010;12.120;2023-03-22T05:48:53;97665.53;;;12.57;100.00
17635;BME280;8936;49.010;12.120;2023-03-22T05:51:19;97670.13;;;12.52;100.00
17635;BME280;8936;49.010;12.120;2023-03-22T05:53:46;97672.81;;;12.52;100.00
17635;BME280;8936;49.010;12.120;2023-03-22T05:56:13;97662.34;;;12.55;100.00
17635;BME280;8936;49.010;12.120;2023-03-22T05:58:39;97661.84;;;12.53;100.00
17635;BME280;8936;49.010;12.120;2023-03-22T06:01:07;97664.22;;;12.55;100.00
17635;BME280;8936;49.010;12.120;2023-03-22T06:03:35;97667.69;;;12.55;100.00
17635;BME280;8936;49.010;12.120;2023-03-22T06:06:01;97680.00;;;12.56;100.00
17635;BME280;8936;49.010;12.120;2023-03-22T06:08:30;97684.97;;;12.39;100.00
17635;BME280;8936;49.010;12.120;2023-03-22T06:10:57;97691.03;;;12.16;100.00
17635;BME280;8936;49.010;12.120;2023-03-22T06:13:23;97680.91;;;12.08;100.00
17635;BME280;8936;49.010;12.120;2023-03-22T06:15:50;97691.59;;;12.13;100.00
17635;BME280;8936;49.010;12.120;2023-03-22T06:18:16;97692.28;;;12.28;100.00
17635;BME280;8936;49.010;12.120;2023-03-22T06:20:44;97690.31;;;12.39;100.00
17635;BME280;8936;49.010;12.120;2023-03-22T06:23:10;97688.41;;;12.44;100.00
17635;BME280;8936;49.010;12.120;2023-03-22T06:25:37;97683.28;;;12.48;100.00
17635;BME280;8936;49.010;12.120;2023-03-22T06:28:03;97686.72;;;12.54;100.00
17635;BME280;8936;49.010;12.120;2023-03-22T06:30:29;97689.44;;;12.49;100.00
17635;BME280;8936;49.010;12.120;2023-03-22T06:32:56;97686.53;;;12.45;100.00
17635;BME280;8936;49.010;12.120;2023-03-22T06:35:24;97691.03;;;12.16;100.00
17635;BME280;8936;49.010;12.120;2023-03-22T06:37:52;97683.97;;;11.86;100.00
17635;BME280;8936;49.010;12.120;2023-03-22T06:40:18;97683.25;;;11.70;100.00
17635;BME280;8936;49.010;12.120;2023-03-22T06:42:45;97692.13;;;11.56;100.00
17635;BME280;8936;49.010;12.120;2023-03-22T06:45:11;97688.69;;;11.50;100.00
17635;BME280;8936;49.010;12.120;2023-03-22T06:47:40;97676.97;;;11.31;100.00
17635;BME280;8936;49.010;12.120;2023-03-22T06:50:07;97689.31;;;11.22;100.00
17635;BME280;8936;49.010;12.120;2023-03-22T06:52:33;97683.19;;;11.11;100.00
17635;BME280;8936;49.010;12.120;2023-03-22T06:55:01;97680.78;;;11.15;100.00
17635;BME280;8936;49.010;12.120;2023-03-22T06:57:27;97687.97;;;11.24;100.00
17635;BME280;8936;49.010;12.120;2023-03-22T06:59:54;97688.28;;;11.08;100.00
17635;BME280;8936;49.010;12.120;2023-03-22T07:02:20;97683.53;;;10.84;100.00
17635;BME280;8936;49.010;12.120;2023-03-22T07:04:46;97689.13;;;10.88;100.00
17635;BME280;8936;49.010;12.120;2023-03-22T07:07:13;97695.47;;;11.17;100.00
17635;BME280;8936;49.010;12.120;2023-03-22T07:09:39;97698.72;;;10.99;100.00
17635;BME280;8936;49.010;12.120;2023-03-22T07:12:07;97697.66;;;11.00;100.00
17635;BME280;8936;49.010;12.120;2023-03-22T07:14:34;97692.53;;;11.09;100.00
17635;BME280;8936;49.010;12.120;2023-03-22T07:17:00;97693.63;;;11.08;100.00
17635;BME280;8936;49.010;12.120;2023-03-22T07:19:27;97694.19;;;10.95;100.00
17635;BME280;8936;49.010;12.120;2023-03-22T07:21:53;97691.78;;;10.98;100.00
17635;BME280;8936;49.010;12.120;2023-03-22T07:24:20;97689.91;;;11.04;100.00
17635;BME280;8936;49.010;12.120;2023-03-22T07:26:46;97690.75;;;10.89;100.00
17635;BME280;8936;49.010;12.120;2023-03-22T07:29:14;97695.50;;;11.02;100.00
17635;BME280;8936;49.010;12.120;2023-03-22T07:31:40;97692.50;;;11.24;100.00
17635;BME280;8936;49.010;12.120;2023-03-22T07:34:06;97703.19;;;11.29;100.00
17635;BME280;8936;49.010;12.120;2023-03-22T07:36:33;97703.22;;;11.19;100.00
17635;BME280;8936;49.010;12.120;2023-03-22T07:39:00;97703.50;;;11.12;100.00
17635;BME280;8936;49.010;12.120;2023-03-22T07:41:26;97701.13;;;11.11;100.00
17635;BME280;8936;49.010;12.120;2023-03-22T07:43:54;97696.81;;;11.15;100.00
17635;BME280;8936;49.010;12.120;2023-03-22T07:46:22;97702.44;;;11.13;100.00
17635;BME280;8936;49.010;12.120;2023-03-22T07:48:48;97697.31;;;11.27;100.00
17635;BME280;8936;49.010;12.120;2023-03-22T07:51:15;97701.56;;;11.38;100.00
17635;BME280;8936;49.010;12.120;2023-03-22T07:53:41;97697.31;;;11.32;100.00
17635;BME280;8936;49.010;12.120;2023-03-22T07:56:08;97695.44;;;11.32;100.00
17635;BME280;8936;49.010;12.120;2023-03-22T07:58:34;97697.84;;;11.24;100.00
17635;BME280;8936;49.010;12.120;2023-03-22T08:01:02;97689.53;;;11.30;100.00
17635;BME280;8936;49.010;12.120;2023-03-22T08:03:30;97700.00;;;11.22;100.00
17635;BME280;8936;49.010;12.120;2023-03-22T08:05:58;97694.91;;;11.20;100.00
17635;BME280;8936;49.010;12.120;2023-03-22T08:08:28;97702.66;;;11.27;100.00
17635;BME280;8936;49.010;12.120;2023-03-22T08:10:54;97689.53;;;11.41;100.00
17635;BME280;8936;49.010;12.120;2023-03-22T08:13:21;97687.91;;;11.39;100.00
17635;BME280;8936;49.010;12.120;2023-03-22T08:15:47;97688.13;;;11.53;100.00
17635;BME280;8936;49.010;12.120;2023-03-22T08:18:13;97692.91;;;11.61;100.00
17635;BME280;8936;49.010;12.120;2023-03-22T08:20:41;97692.09;;;11.71;100.00
17635;BME280;8936;49.010;12.120;2023-03-22T08:23:09;97698.50;;;11.65;100.00
17635;BME280;8936;49.010;12.120;2023-03-22T08:25:39;97695.00;;;11.74;100.00
17635;BME280;8936;49.010;12.120;2023-03-22T08:28:06;97694.13;;;11.89;100.00
17635;BME280;8936;49.010;12.120;2023-03-22T08:30:32;97697.31;;;11.96;100.00
17635;BME280;8936;49.010;12.120;2023-03-22T08:32:59;97692.44;;;12.03;100.00
17635;BME280;8936;49.010;12.120;2023-03-22T08:35:25;97689.44;;;12.15;100.00
17635;BME280;8936;49.010;12.120;2023-03-22T08:37:53;97693.97;;;12.14;100.00
17635;BME280;8936;49.010;12.120;2023-03-22T08:40:20;97697.72;;;12.13;100.00
17635;BME280;8936;49.010;12.120;2023-03-22T08:42:47;97698.78;;;12.17;100.00
17635;BME280;8936;49.010;12.120;2023-03-22T08:45:14;97702.06;;;12.09;100.00
17635;BME280;8936;49.010;12.120;2023-03-22T08:47:41;97699.88;;;12.11;100.00
17635;BME280;8936;49.010;12.120;2023-03-22T08:50:07;97690.38;;;12.29;100.00
17635;BME280;8936;49.010;12.120;2023-03-22T08:52:34;97687.44;;;12.30;100.00
17635;BME280;8936;49.010;12.120;2023-03-22T08:55:02;97691.38;;;12.38;100.00
17635;BME280;8936;49.010;12.120;2023-03-22T08:57:28;97684.03;;;12.54;100.00
17635;BME280;8936;49.010;12.120;2023-03-22T08:59:55;97676.81;;;12.54;100.00
17635;BME280;8936;49.010;12.120;2023-03-22T09:02:22;97680.47;;;12.63;100.00
17635;BME280;8936;49.010;12.120;2023-03-22T09:04:48;97676.97;;;12.68;100.00
17635;BME280;8936;49.010;12.120;2023-03-22T09:07:15;97677.16;;;12.76;100.00
17635;BME280;8936;49.010;12.120;2023-03-22T09:09:43;97679.75;;;12.81;100.00
17635;BME280;8936;49.010;12.120;2023-03-22T09:12:10;97670.03;;;12.90;100.00
17635;BME280;8936;49.010;12.120;2023-03-22T09:14:37;97672.69;;;12.95;100.00
17635;BME280;8936;49.010;12.120;2023-03-22T09:17:03;97653.34;;;12.98;100.00
17635;BME280;8936;49.010;12.120;2023-03-22T09:19:30;97651.69;;;13.03;100.00
17635;BME280;8936;49.010;12.120;2023-03-22T09:21:56;97652.06;;;13.20;100.00
17635;BME280;8936;49.010;12.120;2023-03-22T09:24:24;97651.50;;;13.23;100.00
17635;BME280;8936;49.010;12.120;2023-03-22T09:26:50;97647.97;;;13.27;100.00
17635;BME280;8936;49.010;12.120;2023-03-22T09:29:18;97638.47;;;13.35;100.00
17635;BME280;8936;49.010;12.120;2023-03-22T09:31:45;97643.41;;;13.46;100.00
17635;BME280;8936;49.010;12.120;2023-03-22T09:34:13;97635.31;;;13.51;100.00
17635;BME280;8936;49.010;12.120;2023-03-22T09:36:39;97631.84;;;13.70;100.00
17635;BME280;8936;49.010;12.120;2023-03-22T09:39:06;97634.09;;;13.81;100.00
17635;BME280;8936;49.010;12.120;2023-03-22T09:41:35;97630.25;;;13.87;100.00
17635;BME280;8936;49.010;12.120;2023-03-22T09:44:03;97631.16;;;13.83;100.00
17635;BME280;8936;49.010;12.120;2023-03-22T09:46:33;97628.38;;;13.88;100.00
17635;BME280;8936;49.010;12.120;2023-03-22T09:49:01;97630.47;;;13.91;100.00
17635;BME280;8936;49.010;12.120;2023-03-22T09:51:29;97626.13;;;13.95;100.00
17635;BME280;8936;49.010;12.120;2023-03-22T09:53:58;97619.38;;;13.97;100.00
17635;BME280;8936;49.010;12.120;2023-03-22T09:56:25;97614.63;;;14.08;100.00
17635;BME280;8936;49.010;12.120;2023-03-22T09:58:53;97606.44;;;13.99;100.00
17635;BME280;8936;49.010;12.120;2023-03-22T10:01:24;97599.38;;;14.22;100.00
17635;BME280;8936;49.010;12.120;2023-03-22T10:03:59;97600.59;;;14.30;100.00
17635;BME280;8936;49.010;12.120;2023-03-22T10:06:28;97599.78;;;14.48;100.00
17635;BME280;8936;49.010;12.120;2023-03-22T10:08:57;97588.34;;;14.56;100.00
17635;BME280;8936;49.010;12.120;2023-03-22T10:11:28;97593.44;;;14.71;100.00
17635;BME280;8936;49.010;12.120;2023-03-22T10:13:59;97585.19;;;14.81;100.00
17635;BME280;8936;49.010;12.120;2023-03-22T10:16:28;97581.91;;;14.98;100.00
17635;BME280;8936;49.010;12.120;2023-03-22T10:19:00;97586.00;;;14.95;100.00
17635;BME280;8936;49.010;12.120;2023-03-22T10:21:29;97588.41;;;14.97;100.00
17635;BME280;8936;49.010;12.120;2023-03-22T10:23:56;97593.06;;;15.05;100.00
17635;BME280;8936;49.010;12.120;2023-03-22T10:26:25;97587.19;;;15.17;100.00
17635;BME280;8936;49.010;12.120;2023-03-22T10:28:54;97579.78;;;15.36;100.00
17635;BME280;8936;49.010;12.120;2023-03-22T10:31:23;97589.38;;;15.28;100.00
17635;BME280;8936;49.010;12.120;2023-03-22T10:33:53;97595.94;;;15.36;100.00
17635;BME280;8936;49.010;12.120;2023-03-22T10:36:23;97590.03;;;15.61;100.00
17635;BME280;8936;49.010;12.120;2023-03-22T10:38:52;97587.84;;;15.63;100.00
17635;BME280;8936;49.010;12.120;2023-03-22T10:41:20;97589.84;;;15.57;100.00
17635;BME280;8936;49.010;12.120;2023-03-22T10:43:48;97592.00;;;15.69;100.00
17635;BME280;8936;49.010;12.120;2023-03-22T10:46:18;97586.13;;;15.81;100.00
17635;BME280;8936;49.010;12.120;2023-03-22T10:48:45;97571.03;;;15.80;100.00
17635;BME280;8936;49.010;12.120;2023-03-22T10:51:15;97578.56;;;15.91;100.00
17635;BME280;8936;49.010;12.120;2023-03-22T10:53:46;97577.50;;;15.92;100.00
17635;BME280;8936;49.010;12.120;2023-03-22T10:56:15;97575.47;;;15.98;100.00
17635;BME280;8936;49.010;12.120;2023-03-22T10:58:42;97581.34;;;16.22;100.00
17635;BME280;8936;49.010;12.120;2023-03-22T11:01:09;97566.28;;;16.21;100.00
17635;BME280;8936;49.010;12.120;2023-03-22T11:03:37;97576.50;;;16.33;100.00
17635;BME280;8936;49.010;12.120;2023-03-22T11:06:05;97577.13;;;16.30;100.00
17635;BME280;8936;49.010;12.120;2023-03-22T11:08:39;97566.81;;;16.32;100.00
17635;BME280;8936;49.010;12.120;2023-03-22T11:11:07;97563.41;;;16.40;99.24
17635;BME280;8936;49.010;12.120;2023-03-22T11:13:39;97559.84;;;16.31;100.00
17635;BME280;8936;49.010;12.120;2023-03-22T11:16:06;97552.72;;;16.35;100.00
17635;BME280;8936;49.010;12.120;2023-03-22T11:18:33;97545.44;;;16.57;100.00
17635;BME280;8936;49.010;12.120;2023-03-22T11:21:00;97545.81;;;16.64;100.00
17635;BME280;8936;49.010;12.120;2023-03-22T11:23:30;97542.47;;;16.67;100.00
17635;BME280;8936;49.010;12.120;2023-03-22T11:25:58;97539.59;;;16.64;100.00
17635;BME280;8936;49.010;12.120;2023-03-22T11:28:27;97538.44;;;16.56;100.00
17635;BME280;8936;49.010;12.120;2023-03-22T11:30:59;97524.28;;;16.82;97.03
17635;BME280;8936;49.010;12.120;2023-03-22T11:33:26;97520.03;;;16.89;96.88
17635;BME280;8936;49.010;12.120;2023-03-22T11:35:53;97526.38;;;16.93;96.45
17635;BME280;8936;49.010;12.120;2023-03-22T11:38:24;97521.31;;;16.92;95.02
17635;BME280;8936;49.010;12.120;2023-03-22T11:40:53;97515.28;;;16.86;95.79
17635;BME280;8936;49.010;12.120;2023-03-22T11:43:20;97507.38;;;16.98;90.59
17635;BME280;8936;49.010;12.120;2023-03-22T11:45:50;97513.88;;;17.06;94.88
17635;BME280;8936;49.010;12.120;2023-03-22T11:48:20;97507.56;;;17.19;93.37
17635;BME280;8936;49.010;12.120;2023-03-22T11:50:47;97503.59;;;17.16;91.83
17635;BME280;8936;49.010;12.120;2023-03-22T11:53:14;97498.16;;;16.99;94.85
17635;BME280;8936;49.010;12.120;2023-03-22T11:55:42;97502.34;;;17.22;92.94
17635;BME280;8936;49.010;12.120;2023-03-22T11:58:19;97492.50;;;17.26;91.81
17635;BME280;8936;49.010;12.120;2023-03-22T12:00:47;97487.69;;;17.06;93.30
17635;BME280;8936;49.010;12.120;2023-03-22T12:03:19;97486.59;;;17.24;87.96
17635;BME280;8936;49.010;12.120;2023-03-22T12:05:48;97486.44;;;17.12;93.25
17635;BME280;8936;49.010;12.120;2023-03-22T12:08:16;97488.03;;;17.31;91.97
17635;BME280;8936;49.010;12.120;2023-03-22T12:10:46;97478.22;;;17.17;92.35
17635;BME280;8936;49.010;12.120;2023-03-22T12:13:17;97468.81;;;17.15;90.12
17635;BME280;8936;49.010;12.120;2023-03-22T12:15:47;97467.88;;;17.37;87.86
17635;BME280;8936;49.010;12.120;2023-03-22T12:18:14;97464.53;;;17.40;86.44
17635;BME280;8936;49.010;12.120;2023-03-22T12:20:46;97457.56;;;17.21;89.48
17635;BME280;8936;49.010;12.120;2023-03-22T12:23:15;97455.19;;;17.37;88.95
17635;BME280;8936;49.010;12.120;2023-03-22T12:25:43;97452.19;;;17.39;87.03
17635;BME280;8936;49.010;12.120;2023-03-22T12:28:12;97451.06;;;17.48;83.02
17635;BME280;8936;49.010;12.120;2023-03-22T12:30:41;97447.72;;;17.43;86.15
17635;BME280;8936;49.010;12.120;2023-03-22T12:33:08;97455.03;;;17.34;87.84
17635;BME280;8936;49.010;12.120;2023-03-22T12:35:37;97450.41;;;17.43;88.07
17635;BME280;8936;49.010;12.120;2023-03-22T12:38:14;97445.81;;;17.52;85.09
17635;BME280;8936;49.010;12.120;2023-03-22T12:40:43;97448.22;;;17.45;86.49
17635;BME280;8936;49.010;12.120;2023-03-22T12:43:12;97440.09;;;17.27;89.28
17635;BME280;8936;49.010;12.120;2023-03-22T12:45:39;97435.16;;;17.21;90.21
17635;BME280;8936;49.010;12.120;2023-03-22T12:48:08;97436.78;;;17.39;89.25
17635;BME280;8936;49.010;12.120;2023-03-22T12:50:37;97441.06;;;17.32;88.53
17635;BME280;8936;49.010;12.120;2023-03-22T12:53:11;97419.78;;;17.21;87.54
17635;BME280;8936;49.010;12.120;2023-03-22T12:55:39;97429.63;;;17.35;87.47
17635;BME280;8936;49.010;12.120;2023-03-22T12:58:06;97421.38;;;17.22;87.05
17635;BME280;8936;49.010;12.120;2023-03-22T13:00:33;97420.41;;;17.27;88.52
17635;BME280;8936;49.010;12.120;2023-03-22T13:03:02;97417.06;;;17.21;88.95
17635;BME280;8936;49.010;12.120;2023-03-22T13:05:31;97418.50;;;17.45;87.98